Time;durP1;ratioP1;P1;durP2;ratioP2;P2;SDS_P1;SDS_P2;PMS_P1;PMS_P2;Temp;Humidity;BMP_temperature;BMP_pressure;BME280_temperature;BME280_humidity;BME280_pressure;Samples;Min_cycle;Max_cycle;Signal;HPM_P1;HPM_P2
2022/03/12 00:02:42;;;;;;;10.00;5.60;;;;;;;0.86;22.19;101450.28;7738895;32;37498;-73
2022/03/12 00:06:58;;;;;;;13.82;5.65;;;;;;;1.04;22.41;101442.09;7738263;32;36946;-72
2022/03/12 00:11:35;;;;;;;9.93;5.40;;;;;;;1.18;22.86;101435.19;7738740;32;39304;-72
2022/03/12 00:15:51;;;;;;;11.75;5.70;;;;;;;1.17;22.59;101433.50;7738187;32;40053;-73
2022/03/12 00:20:10;;;;;;;10.77;5.60;;;;;;;0.92;23.06;101433.53;7739154;32;38606;-71
2022/03/12 00:24:29;;;;;;;10.93;6.15;;;;;;;0.83;23.45;101435.38;7737855;32;37179;-72
2022/03/12 00:28:45;;;;;;;8.73;5.32;;;;;;;0.60;23.71;101442.38;7738510;32;38290;-72
2022/03/12 00:33:01;;;;;;;9.73;5.65;;;;;;;0.61;23.39;101444.09;7739022;32;39619;-73
2022/03/12 00:37:19;;;;;;;10.30;5.43;;;;;;;0.43;23.87;101431.66;7738674;32;39058;-72
2022/03/12 00:41:36;;;;;;;9.80;6.25;;;;;;;0.57;23.60;101440.91;7736972;32;37114;-72
2022/03/12 00:45:52;;;;;;;12.55;5.95;;;;;;;0.55;23.77;101448.25;7737834;32;39775;-75
2022/03/12 00:50:08;;;;;;;9.85;5.40;;;;;;;0.42;23.69;101437.19;7738276;32;40561;-73
2022/03/12 00:54:25;;;;;;;11.68;5.78;;;;;;;0.52;23.29;101438.69;7738106;32;37903;-72
2022/03/12 00:58:45;;;;;;;10.85;6.15;;;;;;;0.60;23.98;101440.53;7738606;32;37305;-71
2022/03/12 01:03:01;;;;;;;12.57;6.40;;;;;;;0.28;24.47;101436.81;7738251;32;39380;-72
2022/03/12 01:07:18;;;;;;;11.07;5.85;;;;;;;0.25;24.60;101426.37;7738358;32;40710;-73
2022/03/12 01:11:34;;;;;;;10.55;6.43;;;;;;;0.16;24.62;101432.75;7738469;32;37693;-71
2022/03/12 01:15:50;;;;;;;12.80;6.60;;;;;;;0.32;24.73;101440.81;7738505;32;37232;-73
2022/03/12 01:20:08;;;;;;;12.32;6.90;;;;;;;0.04;25.39;101428.69;7738038;32;39339;-73
2022/03/12 01:24:24;;;;;;;11.93;6.18;;;;;;;0.07;25.33;101442.63;7738354;32;40650;-72
2022/03/12 01:28:41;;;;;;;8.65;5.82;;;;;;;0.03;25.34;101453.81;7738198;32;38596;-73
2022/03/12 01:32:58;;;;;;;9.68;5.50;;;;;;;0.29;24.94;101441.16;7738062;32;37909;-72
2022/03/12 01:37:19;;;;;;;9.32;5.97;;;;;;;-0.15;26.01;101449.38;7737799;32;39157;-74
2022/03/12 01:41:40;;;;;;;10.68;6.35;;;;;;;-0.32;25.91;101447.63;7738116;32;39993;-72
2022/03/12 01:46:00;;;;;;;9.70;5.55;;;;;;;-0.17;26.43;101447.84;7737961;32;37962;-72
2022/03/12 01:50:19;;;;;;;10.73;5.87;;;;;;;-0.37;26.66;101444.59;7738299;32;37649;-72
2022/03/12 01:54:38;;;;;;;8.85;5.87;;;;;;;-0.51;26.81;101454.88;7736547;32;39372;-73
2022/03/12 01:58:55;;;;;;;10.43;5.95;;;;;;;-0.58;26.87;101462.72;7738011;32;40762;-73
2022/03/12 02:03:12;;;;;;;8.73;5.78;;;;;;;-0.28;26.70;101457.84;7737847;32;38718;-72
2022/03/12 02:07:29;;;;;;;10.52;6.12;;;;;;;-0.37;27.03;101447.28;7737847;32;37225;-71
2022/03/12 02:11:51;;;;;;;10.32;6.25;;;;;;;-0.32;26.81;101458.34;7737573;32;39307;-73
2022/03/12 02:16:09;;;;;;;9.75;5.95;;;;;;;-0.56;27.09;101465.25;7737839;32;40888;-72
2022/03/12 02:20:25;;;;;;;10.88;6.05;;;;;;;-0.66;27.38;101451.94;7737546;32;37952;-72
2022/03/12 02:24:42;;;;;;;9.35;6.32;;;;;;;-0.80;27.72;101457.88;7737353;32;38265;-72
2022/03/12 02:28:58;;;;;;;11.27;6.47;;;;;;;-0.88;27.75;101450.63;7737462;32;39143;-72
2022/03/12 02:33:15;;;;;;;10.98;6.12;;;;;;;-0.74;27.95;101461.75;7737495;32;40039;-73
2022/03/12 02:37:34;;;;;;;11.15;6.07;;;;;;;-0.61;26.89;101456.84;7737372;32;37771;-72
2022/03/12 02:41:50;;;;;;;9.68;6.40;;;;;;;-0.52;26.31;101461.22;7737092;32;36812;-73
2022/03/12 02:46:06;;;;;;;10.68;6.35;;;;;;;-0.83;27.43;101472.44;7737002;32;39588;-73
2022/03/12 02:50:23;;;;;;;10.05;6.12;;;;;;;-0.68;28.94;101477.22;7736614;32;39854;-73
2022/03/12 02:54:41;;;;;;;10.50;7.03;;;;;;;-0.62;30.06;101463.19;7737040;32;38686;-72
2022/03/12 02:58:57;;;;;;;9.55;6.32;;;;;;;-0.47;29.50;101475.00;7735807;32;37055;-72
2022/03/12 03:03:14;;;;;;;11.63;6.40;;;;;;;-0.50;29.02;101474.47;7736836;32;40403;-73
2022/03/12 03:07:30;;;;;;;11.60;6.72;;;;;;;-0.50;28.53;101478.03;7745187;32;39641;-74
2022/03/12 03:11:46;;;;;;;10.75;5.93;;;;;;;-0.87;28.48;101475.56;7745571;32;37655;-74
2022/03/12 03:16:08;;;;;;;10.15;6.25;;;;;;;-0.77;28.52;101479.81;7745081;32;37538;-73
2022/03/12 03:20:24;;;;;;;12.07;6.32;;;;;;;-0.92;28.61;101486.72;7745557;32;39386;-73
2022/03/12 03:24:40;;;;;;;10.30;6.15;;;;;;;-0.73;28.45;101476.84;7745771;32;40755;-74
2022/03/12 03:28:56;;;;;;;9.88;6.22;;;;;;;-1.01;28.73;101477.78;7747436;32;38112;-73
2022/03/12 03:33:15;;;;;;;10.18;6.20;;;;;;;-0.87;28.57;101476.41;7745200;32;37874;-73
2022/03/12 03:37:31;;;;;;;11.12;6.12;;;;;;;-1.01;28.80;101487.69;7745234;32;39123;-72
2022/03/12 03:41:47;;;;;;;11.80;6.62;;;;;;;-1.24;29.02;101488.13;7744474;32;40179;-73
2022/03/12 03:46:03;;;;;;;10.85;6.18;;;;;;;-1.27;28.79;101487.59;7744422;32;37895;-73
2022/03/12 03:50:25;;;;;;;11.02;5.80;;;;;;;-1.12;28.90;101495.94;7743166;32;37439;-73
2022/03/12 03:54:42;;;;;;;8.55;6.12;;;;;;;-1.10;29.18;101493.94;7744579;32;39251;-73
2022/03/12 03:58:58;;;;;;;9.38;6.65;;;;;;;-1.43;29.36;101507.00;7744457;32;39922;-73
2022/03/12 04:03:15;;;;;;;10.25;7.10;;;;;;;-1.35;31.48;101497.22;7744312;32;38064;-73
2022/03/12 04:07:31;;;;;;;9.30;6.47;;;;;;;-1.33;32.03;101505.09;7744100;32;37954;-72
2022/03/12 04:11:47;;;;;;;8.93;6.10;;;;;;;-1.62;32.64;101499.94;7744087;32;39443;-72
2022/03/12 04:16:04;;;;;;;13.73;6.00;;;;;;;-1.28;32.35;101491.25;7742015;32;40179;-72
2022/03/12 04:20:21;;;;;;;9.20;6.40;;;;;;;-1.48;31.88;101490.56;7738503;32;38795;-72
2022/03/12 04:24:37;;;;;;;13.30;6.62;;;;;;;-1.59;32.53;101478.25;7739072;32;37827;-72
2022/03/12 04:28:53;;;;;;;11.50;6.93;;;;;;;-1.61;33.82;101493.59;7738991;32;40110;-72
2022/03/12 04:33:11;;;;;;;11.38;6.15;;;;;;;-1.69;35.01;101499.72;7738823;32;40692;-72
2022/03/12 04:37:27;;;;;;;10.00;6.35;;;;;;;-1.60;35.43;101488.09;7738778;32;37847;-73
2022/03/12 04:41:43;;;;;;;11.10;6.65;;;;;;;-1.66;36.18;101499.38;7738671;32;37135;-72
2022/03/12 04:45:59;;;;;;;10.23;6.78;;;;;;;-1.44;35.72;101494.63;7738651;32;40000;-72
2022/03/12 04:50:17;;;;;;;11.48;6.80;;;;;;;-1.49;35.91;101499.59;7738646;32;40774;-73
2022/03/12 04:54:33;;;;;;;10.73;6.70;;;;;;;-1.61;36.32;101497.09;7738320;32;38657;-72
2022/03/12 04:58:49;;;;;;;12.30;6.75;;;;;;;-1.74;37.03;101496.66;7738189;32;37879;-72
2022/03/12 05:03:08;;;;;;;11.98;7.55;;;;;;;-1.59;37.88;101497.78;7738352;32;39300;-72
2022/03/12 05:07:26;;;;;;;12.43;7.20;;;;;;;-1.62;37.74;101487.41;7738691;32;39919;-73
2022/03/12 05:11:42;;;;;;;10.55;6.70;;;;;;;-1.62;37.00;101498.13;7737107;32;37921;-74
2022/03/12 05:16:04;;;;;;;11.75;6.45;;;;;;;-1.63;36.13;101499.09;7737946;32;37379;-75
2022/03/12 05:20:26;;;;;;;10.47;6.93;;;;;;;-1.45;35.69;101496.47;7738664;32;40028;-72
2022/03/12 05:24:42;;;;;;;15.00;7.00;;;;;;;-1.42;36.01;101501.50;7738440;32;39941;-74
2022/03/12 05:28:58;;;;;;;12.20;7.10;;;;;;;-1.68;36.52;101512.06;7736847;32;37963;-74
2022/03/12 05:33:16;;;;;;;11.77;7.20;;;;;;;-1.34;36.24;101506.09;7738458;32;36943;-72
2022/03/12 05:37:32;;;;;;;9.65;6.28;;;;;;;-1.44;36.16;101502.66;7738471;32;39108;-74
2022/03/12 05:41:49;;;;;;;11.07;6.87;;;;;;;-1.42;35.36;101514.03;7737645;32;40258;-74
2022/03/12 05:46:06;;;;;;;14.65;6.87;;;;;;;-1.41;35.49;101507.72;7738145;32;37987;-73
2022/03/12 05:50:22;;;;;;;13.00;7.68;;;;;;;-1.55;36.89;101511.75;7738158;32;37295;-73
2022/03/12 05:54:38;;;;;;;9.73;6.97;;;;;;;-1.39;36.86;101513.75;7738023;32;39156;-75
2022/03/12 05:58:54;;;;;;;11.07;6.70;;;;;;;-1.30;36.51;101518.19;7737919;32;40635;-74
2022/03/12 06:03:10;;;;;;;15.35;8.55;;;;;;;-1.32;35.95;101517.50;7738004;32;38623;-75
2022/03/12 06:07:27;;;;;;;22.05;12.65;;;;;;;-1.26;38.57;101521.37;7737320;32;37138;-76
2022/03/12 06:11:43;;;;;;;22.85;14.32;;;;;;;-1.33;38.14;101521.16;7737547;32;40144;-74
2022/03/12 06:16:02;;;;;;;36.33;21.77;;;;;;;-1.39;39.30;101521.78;7737348;32;39757;-73
2022/03/12 06:20:21;;;;;;;23.48;15.07;;;;;;;-1.30;39.90;101525.37;7737326;32;37819;-75
2022/03/12 06:24:37;;;;;;;12.40;7.53;;;;;;;-1.22;38.47;101534.31;7737702;32;37365;-71
2022/03/12 06:28:54;;;;;;;16.42;9.02;;;;;;;-1.28;41.71;101529.56;7737270;32;40062;-71
2022/03/12 06:33:10;;;;;;;17.92;9.77;;;;;;;-1.27;41.15;101520.56;7737511;32;40762;-72
2022/03/12 06:37:26;;;;;;;18.20;10.48;;;;;;;-1.12;40.49;101528.03;7736272;32;37618;-73
2022/03/12 06:41:45;;;;;;;20.33;13.82;;;;;;;-0.80;39.38;101522.97;7736366;32;38060;-73
2022/03/12 06:46:02;;;;;;;17.80;11.05;;;;;;;-0.55;35.57;101515.16;7737127;32;38263;-71
2022/03/12 06:50:22;;;;;;;14.93;8.60;;;;;;;-0.91;40.75;101541.97;7737342;32;40903;-72
2022/03/12 06:54:38;;;;;;;14.07;8.40;;;;;;;-0.73;38.33;101543.81;7736699;32;39434;-72
2022/03/12 06:58:54;;;;;;;13.98;7.28;;;;;;;-0.48;37.18;101532.28;7736662;32;37690;-72
2022/03/12 07:03:11;;;;;;;11.80;7.72;;;;;;;-0.02;34.30;101538.28;7737073;32;39269;-72
2022/03/12 07:07:27;;;;;;;13.25;7.62;;;;;;;0.11;35.03;101528.94;7736298;32;40886;-71
2022/03/12 07:11:43;;;;;;;12.65;7.95;;;;;;;0.59;33.51;101530.12;7736531;32;38652;-72
2022/03/12 07:16:03;;;;;;;13.65;7.78;;;;;;;0.73;33.96;101529.50;7736288;32;37281;-72
2022/03/12 07:20:20;;;;;;;16.60;9.50;;;;;;;0.84;33.63;101538.25;7736128;32;40127;-73
2022/03/12 07:24:36;;;;;;;13.95;8.50;;;;;;;1.09;32.14;101531.06;7735851;32;41035;-70
2022/03/12 07:28:52;;;;;;;13.15;7.22;;;;;;;1.33;32.66;101527.56;7736203;32;38642;-71
2022/03/12 07:33:09;;;;;;;12.25;7.28;;;;;;;1.26;33.27;101526.53;7736320;32;37277;-71
2022/03/12 07:37:25;;;;;;;11.40;7.15;;;;;;;1.20;34.44;101514.59;7736083;32;39404;-73
2022/03/12 07:41:41;;;;;;;11.32;5.65;;;;;;;1.31;32.86;101521.47;7735925;32;40040;-70
2022/03/12 07:45:57;;;;;;;9.68;5.55;;;;;;;1.86;28.15;101506.44;7735610;32;38063;-70
2022/03/12 07:50:14;;;;;;;11.02;6.25;;;;;;;2.34;26.40;101504.59;7734640;32;37825;-72
2022/03/12 07:54:30;;;;;;;9.13;6.47;;;;;;;2.13;25.89;101496.28;7739342;32;39399;-71
2022/03/12 07:58:47;;;;;;;11.12;5.90;;;;;;;2.72;25.77;101495.81;7739441;32;40707;-71
2022/03/12 08:03:03;;;;;;;12.07;5.93;;;;;;;3.14;24.77;101492.62;7739290;32;37936;-70
2022/03/12 08:07:19;;;;;;;10.68;5.22;;;;;;;3.56;24.15;101493.09;7739312;32;38174;-71
2022/03/12 08:11:35;;;;;;;8.07;5.03;;;;;;;3.23;23.92;101488.03;7739384;32;39447;-70
2022/03/12 08:15:51;;;;;;;7.37;4.50;;;;;;;3.97;23.27;101498.06;7739184;32;39973;-71
2022/03/12 08:20:08;;;;;;;9.63;4.93;;;;;;;3.95;22.86;101497.44;7739138;32;37939;-71
2022/03/12 08:24:24;;;;;;;9.80;4.82;;;;;;;3.68;23.45;101493.50;7739180;32;37061;-71
2022/03/12 08:28:41;;;;;;;11.40;5.07;;;;;;;4.27;22.85;101490.78;7739099;32;39361;-71
2022/03/12 08:32:58;;;;;;;7.82;4.57;;;;;;;3.94;23.48;101490.34;7738990;32;40219;-71
2022/03/12 08:37:13;;;;;;;8.98;4.87;;;;;;;4.74;22.32;101479.66;7739001;32;37899;-72
2022/03/12 08:41:30;;;;;;;4.93;3.92;;;;;;;4.61;22.21;101481.19;7738823;32;36855;-72
2022/03/12 08:45:46;;;;;;;8.20;4.10;;;;;;;4.84;22.17;101481.03;7734237;32;146086;-72
2022/03/12 08:50:06;;;;;;;9.10;4.50;;;;;;;4.88;24.14;101476.91;7738671;32;39915;-71
2022/03/12 08:54:22;;;;;;;7.12;4.00;;;;;;;5.83;21.22;101463.09;7738757;32;38629;-72
2022/03/12 08:58:41;;;;;;;7.53;4.20;;;;;;;5.00;21.62;101477.25;7738742;32;37169;-71
2022/03/12 09:02:58;;;;;;;7.80;4.07;;;;;;;5.82;20.49;101472.25;7738367;32;40102;-72
2022/03/12 09:07:14;;;;;;;6.82;4.18;;;;;;;5.58;20.15;101474.37;7738576;32;39608;-71
2022/03/12 09:11:31;;;;;;;10.00;4.70;;;;;;;6.16;19.73;101467.87;7738717;32;38562;-71
2022/03/12 09:15:47;;;;;;;7.80;5.18;;;;;;;6.51;19.13;101467.78;7738530;32;37186;-71
2022/03/12 09:20:06;;;;;;;11.25;4.97;;;;;;;6.39;19.69;101457.53;7738527;32;40032;-77
2022/03/12 09:24:22;;;;;;;7.32;4.18;;;;;;;6.45;20.83;101457.75;7738418;32;38918;-71
2022/03/12 09:28:38;;;;;;;7.50;4.60;;;;;;;6.56;19.74;101447.16;7738134;32;37697;-71
2022/03/12 09:32:54;;;;;;;10.98;4.57;;;;;;;6.93;19.49;101447.66;7738323;32;37872;-75
2022/03/12 09:37:10;;;;;;;8.38;4.57;;;;;;;7.79;18.43;101445.91;7738313;32;39212;-73
2022/03/12 09:41:26;;;;;;;8.27;4.35;;;;;;;7.61;18.34;101437.63;7737961;32;39796;-72
2022/03/12 09:45:42;;;;;;;9.55;4.70;;;;;;;7.64;18.26;101429.03;7737840;32;37736;-72
2022/03/12 09:49:58;;;;;;;8.63;4.35;;;;;;;7.85;17.34;101434.19;7737740;32;36870;-70
2022/03/12 09:54:15;;;;;;;8.82;4.32;;;;;;;7.76;17.44;101429.22;7737793;32;39861;-72
2022/03/12 09:58:31;;;;;;;8.02;4.07;;;;;;;8.03;17.06;101424.53;7737494;32;40966;-74
2022/03/12 10:02:47;;;;;;;7.30;4.07;;;;;;;8.32;17.20;101419.59;7737558;32;38219;-72
2022/03/12 10:07:06;;;;;;;10.27;3.87;;;;;;;8.75;17.42;101416.25;7737550;32;37159;-71
2022/03/12 10:11:22;;;;;;;7.50;3.90;;;;;;;8.78;16.73;101407.66;7736111;32;39345;-72
2022/03/12 10:15:38;;;;;;;9.88;4.50;;;;;;;9.14;16.46;101404.22;7736423;32;40797;-73
2022/03/12 10:19:55;;;;;;;9.13;4.50;;;;;;;8.81;16.59;101409.91;7737454;32;37826;-72
2022/03/12 10:24:14;;;;;;;13.20;4.37;;;;;;;9.35;15.65;101400.25;7737244;32;36951;-70
2022/03/12 10:28:34;;;;;;;9.55;4.10;;;;;;;9.61;15.55;101392.87;7737382;32;39110;-71
2022/03/12 10:32:51;;;;;;;13.00;4.97;;;;;;;9.80;15.49;101390.16;7737251;32;39904;-71
2022/03/12 10:37:10;;;;;;;6.97;4.32;;;;;;;9.66;15.32;101384.84;7737036;32;38791;-72
2022/03/12 10:41:30;;;;;;;7.03;3.97;;;;;;;9.57;15.16;101383.47;7737563;32;37699;-71
2022/03/12 10:45:49;;;;;;;7.90;3.83;;;;;;;9.21;17.58;101374.22;7737457;32;40036;-72
2022/03/12 10:50:18;;;;;;;9.60;4.20;;;;;;;9.93;15.30;101377.22;7737155;32;41470;-75
2022/03/12 10:54:38;;;;;;;9.55;4.47;;;;;;;9.46;14.60;101368.72;7737167;32;37970;-72
2022/03/12 10:58:58;;;;;;;8.77;4.30;;;;;;;9.99;14.57;101372.72;7737199;32;37081;-71
2022/03/12 11:03:19;;;;;;;8.18;4.35;;;;;;;10.13;14.16;101357.03;7737178;32;39258;-71
2022/03/12 11:07:35;;;;;;;10.38;4.22;;;;;;;10.95;14.07;101348.28;7737074;32;40539;-71
2022/03/12 11:11:52;;;;;;;7.78;4.10;;;;;;;10.86;13.09;101339.56;7736739;32;37902;-71
2022/03/12 11:16:08;;;;;;;7.07;3.80;;;;;;;11.64;13.52;101340.25;7736702;32;37030;-71
2022/03/12 11:20:25;;;;;;;11.30;4.20;;;;;;;10.60;13.67;101345.47;7736590;32;39147;-71
2022/03/12 11:24:50;;;;;;;8.20;4.10;;;;;;;9.17;15.48;101337.63;7736433;32;39978;-71
2022/03/12 11:29:06;;;;;;;9.35;4.57;;;;;;;9.52;15.07;101335.16;7739817;32;37922;-72
2022/03/12 11:33:25;;;;;;;9.50;4.12;;;;;;;9.87;16.58;101328.25;7739220;32;36881;-73
2022/03/12 11:37:42;;;;;;;9.52;4.25;;;;;;;11.21;14.82;101329.72;7739775;32;39461;-71
2022/03/12 11:42:22;;;;;;;9.80;4.30;;;;;;;11.96;12.98;101326.16;7739717;32;40613;-72
2022/03/12 11:46:38;;;;;;;8.18;4.40;;;;;;;11.68;13.24;101313.28;7739493;32;38183;-74
2022/03/12 11:50:54;;;;;;;13.35;4.12;;;;;;;10.58;13.42;101306.69;7739348;32;37053;-72
2022/03/12 11:55:17;;;;;;;8.23;4.43;;;;;;;11.28;13.01;101298.53;7739211;32;39477;-72
2022/03/12 11:59:34;;;;;;;10.13;4.47;;;;;;;11.18;12.73;101292.84;7739098;32;40061;-71
2022/03/12 12:04:09;;;;;;;9.43;4.70;;;;;;;12.03;12.29;101285.00;7739088;32;38581;-72
2022/03/12 12:08:28;;;;;;;9.20;4.60;;;;;;;11.76;12.35;101276.53;7738993;32;37803;-72
2022/03/12 12:12:47;;;;;;;8.10;4.43;;;;;;;11.96;11.18;101278.88;7739028;32;39105;-70
2022/03/12 12:17:03;;;;;;;8.20;4.40;;;;;;;11.06;12.06;101273.75;7738909;32;40020;-72
2022/03/12 12:21:20;;;;;;;8.68;4.28;;;;;;;11.02;12.45;101282.62;7738738;32;37830;-72
2022/03/12 12:25:37;;;;;;;8.10;4.37;;;;;;;10.47;12.35;101271.00;7739044;32;37261;-71
2022/03/12 12:29:55;;;;;;;6.80;4.37;;;;;;;10.58;11.93;101269.34;7738265;32;39364;-72
2022/03/12 12:34:11;;;;;;;10.55;4.28;;;;;;;10.39;12.59;101268.59;7738587;32;39871;-70
2022/03/12 12:38:27;;;;;;;11.25;4.45;;;;;;;10.20;12.44;101264.28;7737941;32;38670;-71
2022/03/12 12:42:43;;;;;;;11.65;5.10;;;;;;;10.30;12.37;101250.91;7738773;32;37840;-71
2022/03/12 12:47:00;;;;;;;7.20;4.43;;;;;;;10.34;12.14;101257.56;7738585;32;40184;-71
2022/03/12 12:51:21;;;;;;;7.47;4.32;;;;;;;11.41;11.52;101250.19;7738702;32;39869;-79
2022/03/12 12:55:38;;;;;;;13.13;4.45;;;;;;;12.22;14.67;101230.94;7738410;32;39264;-73
2022/03/12 12:59:54;;;;;;;7.65;4.25;;;;;;;11.32;11.06;101235.25;7737982;32;37745;-73
2022/03/12 13:04:12;;;;;;;8.38;4.35;;;;;;;11.50;11.20;101237.78;7711857;32;39935;-73
2022/03/12 13:08:45;;;;;;;8.32;4.30;;;;;;;11.51;10.91;101236.72;7711254;32;39887;-75
2022/03/12 13:13:09;;;;;;;5.60;3.78;;;;;;;11.56;11.65;101231.38;7711424;32;38294;-74
2022/03/12 13:17:30;;;;;;;11.05;4.00;;;;;;;11.46;11.26;101226.53;7711368;32;37040;-73
2022/03/12 13:21:57;;;;;;;8.07;5.00;;;;;;;11.32;11.67;101227.88;7727203;32;40620;-73
2022/03/12 13:26:20;;;;;;;7.85;4.45;;;;;;;11.39;10.96;101211.38;7737783;32;40128;-73
2022/03/12 13:30:36;;;;;;;8.35;4.20;;;;;;;12.32;10.31;101194.75;7737817;32;37766;-73
2022/03/12 13:34:52;;;;;;;13.80;4.78;;;;;;;12.24;10.67;101201.44;7737887;32;37100;-74
2022/03/12 13:39:10;;;;;;;6.50;3.87;;;;;;;12.41;10.83;101187.78;7737905;32;39677;-74
2022/03/12 13:43:26;;;;;;;7.65;4.22;;;;;;;12.11;10.42;101193.59;7737373;32;40625;-73
2022/03/12 13:47:48;;;;;;;6.97;3.92;;;;;;;12.01;10.25;101186.84;7737487;32;37825;-74
2022/03/12 13:52:05;;;;;;;15.63;4.82;;;;;;;11.69;10.96;101172.03;7738301;32;37109;-71
2022/03/12 13:56:24;;;;;;;10.00;4.70;;;;;;;11.89;13.50;101172.41;7737463;32;39588;-72
2022/03/12 14:00:41;;;;;;;11.98;4.85;;;;;;;12.18;10.36;101166.91;7737906;32;39876;-71
2022/03/12 14:04:59;;;;;;;7.30;3.90;;;;;;;12.67;11.08;101172.56;7737610;32;38633;-72
2022/03/12 14:09:21;;;;;;;10.68;4.30;;;;;;;12.55;10.03;101169.91;7737507;32;36997;-72
2022/03/12 14:13:40;;;;;;;12.65;4.10;;;;;;;12.93;9.87;101153.75;7736016;32;39402;-71
2022/03/12 14:17:59;;;;;;;11.63;4.57;;;;;;;12.78;10.24;101152.47;7736828;32;40653;-71
2022/03/12 14:22:15;;;;;;;10.60;4.00;;;;;;;13.48;9.80;101149.22;7737526;32;36965;-73
2022/03/12 14:26:50;;;;;;;9.48;4.03;;;;;;;13.22;10.23;101145.34;7737271;32;37638;-71
2022/03/12 14:31:06;;;;;;;9.93;4.35;;;;;;;13.34;9.83;101146.06;7737474;32;39262;-73
2022/03/12 14:35:25;;;;;;;11.90;4.30;;;;;;;14.04;9.95;101143.44;7737350;32;39879;-73
2022/03/12 14:39:50;;;;;;;;;;;;;;;13.81;9.90;101142.66;7737605;32;37773;-72
2022/03/12 14:44:11;;;;;;;7.93;4.50;;;;;;;14.28;9.71;101141.97;7737472;32;36666;-73
2022/03/12 14:48:30;;;;;;;9.02;5.07;;;;;;;14.47;9.95;101138.81;7734570;32;39302;-72
2022/03/12 14:52:48;;;;;;;11.38;4.82;;;;;;;14.75;9.59;101143.09;7736291;32;39126;-70
2022/03/12 14:57:07;;;;;;;13.70;7.28;;;;;;;14.98;9.43;101141.81;7735040;32;36904;-72
2022/03/12 15:01:27;;;;;;;11.12;4.70;;;;;;;14.99;9.35;101139.94;7734113;32;37171;-71
2022/03/12 15:05:45;;;;;;;15.63;4.28;;;;;;;14.97;9.50;101129.19;7734450;32;40234;-71
2022/03/12 15:10:32;;;;;;;9.18;4.50;;;;;;;15.44;9.07;101129.34;7734577;32;40555;-73
2022/03/12 15:14:48;;;;;;;8.98;4.45;;;;;;;15.37;8.83;101124.09;7734634;32;37539;-73
2022/03/12 15:19:14;;;;;;;8.63;4.62;;;;;;;14.94;8.81;101121.50;7735733;32;36979;-72
2022/03/12 15:23:31;;;;;;;8.80;4.53;;;;;;;14.64;8.82;101125.75;7736440;32;39780;-72
2022/03/12 15:27:56;;;;;;;9.38;4.70;;;;;;;14.03;10.09;101114.34;7736037;32;39907;-72
2022/03/12 15:32:16;;;;;;;11.88;4.93;;;;;;;13.87;9.91;101119.72;7736229;32;37627;-72
2022/03/12 15:36:34;;;;;;;10.20;4.90;;;;;;;14.08;9.92;101103.44;7736213;32;36911;-71
2022/03/12 15:40:50;;;;;;;9.55;5.07;;;;;;;14.01;9.84;101111.06;7736184;32;39310;-72
2022/03/12 15:45:12;;;;;;;8.45;4.37;;;;;;;13.80;9.82;101108.16;7735802;32;39965;-73
2022/03/12 15:49:28;;;;;;;15.75;6.22;;;;;;;13.42;10.16;101115.47;7735582;32;39013;-72
2022/03/12 15:53:44;;;;;;;29.85;15.40;;;;;;;12.71;10.76;101109.94;7735711;32;38321;-73
2022/03/12 15:58:01;;;;;;;10.70;5.85;;;;;;;12.40;11.16;101110.38;7734878;32;39089;-72
2022/03/12 16:02:17;;;;;;;10.82;5.05;;;;;;;12.15;11.18;101118.19;7735647;32;39957;-74
2022/03/12 16:06:34;;;;;;;9.77;4.55;;;;;;;11.62;11.78;101117.56;7735263;32;38600;-72
2022/03/12 16:10:50;;;;;;;13.13;5.15;;;;;;;11.42;11.97;101123.50;7735181;32;37075;-72
2022/03/12 16:15:09;;;;;;;13.52;5.22;;;;;;;11.34;12.02;101121.16;7738864;32;39990;-73
2022/03/12 16:19:25;;;;;;;10.68;5.10;;;;;;;11.00;12.51;101118.31;7736975;32;38995;-73
2022/03/12 16:23:42;;;;;;;13.23;5.90;;;;;;;10.37;13.21;101126.25;7737679;32;38676;-72
2022/03/12 16:28:00;;;;;;;9.68;5.22;;;;;;;10.48;13.13;101117.22;7737613;32;37618;-72
2022/03/12 16:32:16;;;;;;;8.70;4.57;;;;;;;10.25;13.46;101122.69;7738449;32;41098;-72
2022/03/12 16:36:32;;;;;;;12.70;4.87;;;;;;;10.32;13.21;101129.69;7737727;32;39784;-73
2022/03/12 16:40:48;;;;;;;8.65;4.80;;;;;;;10.35;13.07;101136.59;7738669;32;38443;-73
2022/03/12 16:45:07;;;;;;;7.15;4.45;;;;;;;10.04;14.15;101135.00;7738837;32;38044;-74
2022/03/12 16:49:23;;;;;;;9.38;5.10;;;;;;;9.56;13.86;101139.50;7738720;32;39131;-75
2022/03/12 16:53:39;;;;;;;9.98;5.07;;;;;;;9.23;13.83;101145.41;7738707;32;39878;-75
2022/03/12 16:57:57;;;;;;;11.07;5.00;;;;;;;8.94;13.94;101142.44;7738132;32;37848;-74
2022/03/12 17:02:13;;;;;;;12.48;5.22;;;;;;;8.71;14.86;101137.66;7738373;32;37144;-74
2022/03/12 17:06:29;;;;;;;10.68;5.55;;;;;;;8.52;15.37;101139.53;7738459;32;39519;-74
2022/03/12 17:10:48;;;;;;;17.27;5.53;;;;;;;8.28;15.98;101137.44;7738121;32;39927;-74
2022/03/12 17:15:07;;;;;;;10.82;6.35;;;;;;;7.82;16.73;101143.28;7738379;32;37807;-73
2022/03/12 17:19:27;;;;;;;10.07;5.97;;;;;;;7.61;16.54;101145.31;7738318;32;37262;-73
2022/03/12 17:23:45;;;;;;;12.43;6.18;;;;;;;7.27;16.61;101154.69;7737588;32;40107;-74
2022/03/12 17:28:02;;;;;;;11.80;6.25;;;;;;;7.23;16.98;101154.28;7737952;32;38989;-72
2022/03/12 17:32:20;;;;;;;12.98;6.28;;;;;;;7.41;16.21;101145.41;7737975;32;38444;-74
2022/03/12 17:36:37;;;;;;;14.77;6.55;;;;;;;6.95;17.18;101146.47;7738140;32;36928;-73
2022/03/12 17:40:53;;;;;;;12.55;7.35;;;;;;;6.97;17.48;101149.81;7738014;32;40081;-73
2022/03/12 17:45:10;;;;;;;18.60;9.95;;;;;;;6.83;17.52;101142.75;7737889;32;40636;-74
2022/03/12 17:49:26;;;;;;;16.58;8.10;;;;;;;6.75;18.16;101143.84;7737567;32;37742;-74
2022/03/12 17:53:43;;;;;;;13.35;7.70;;;;;;;6.43;18.81;101145.59;7738000;32;37862;-74
2022/03/12 17:58:00;;;;;;;15.07;7.78;;;;;;;6.34;18.69;101144.97;7732593;32;40067;-72
2022/03/12 18:02:17;;;;;;;18.65;8.05;;;;;;;6.20;19.00;101138.75;7736627;32;40050;-73
2022/03/12 18:06:35;;;;;;;17.58;8.23;;;;;;;6.33;19.43;101138.72;7736811;32;38540;-73
2022/03/12 18:10:53;;;;;;;22.25;7.50;;;;;;;5.93;20.23;101138.72;7735697;32;38146;-73
2022/03/12 18:15:10;;;;;;;12.27;5.90;;;;;;;5.81;20.11;101141.22;7736937;32;38240;-72
2022/03/12 18:19:26;;;;;;;13.35;6.87;;;;;;;5.74;19.85;101137.66;7732872;32;41315;-73
2022/03/12 18:23:45;;;;;;;14.85;7.12;;;;;;;5.65;19.57;101147.03;7734234;32;37657;-72
2022/03/12 18:28:01;;;;;;;19.67;10.07;;;;;;;5.38;20.01;101146.97;7735427;32;37916;-73
2022/03/12 18:32:17;;;;;;;9.48;5.90;;;;;;;5.05;19.50;101142.31;7735803;32;40020;-72
2022/03/12 18:36:33;;;;;;;11.52;7.20;;;;;;;5.21;19.78;101138.41;7734687;32;40080;-73
2022/03/12 18:40:50;;;;;;;12.70;6.12;;;;;;;4.84;19.59;101137.81;7733664;32;37341;-72
2022/03/12 18:45:08;;;;;;;10.63;6.05;;;;;;;5.05;19.62;101131.50;7735970;32;36927;-73
2022/03/12 18:49:25;;;;;;;17.65;9.75;;;;;;;4.59;20.36;101140.22;7734461;32;39231;-73
2022/03/12 18:53:42;;;;;;;19.42;9.18;;;;;;;4.54;20.06;101139.16;7734548;32;40078;-72
2022/03/12 18:58:01;;;;;;;75.78;10.45;;;;;;;4.53;19.81;101137.47;7735753;32;37799;-74
2022/03/12 19:02:17;;;;;;;14.60;6.68;;;;;;;4.22;20.99;101125.22;7735598;32;37267;-73
2022/03/12 19:06:35;;;;;;;19.12;8.93;;;;;;;4.10;21.02;101127.63;7735862;32;40144;-73
2022/03/12 19:10:52;;;;;;;19.05;9.70;;;;;;;3.94;21.86;101120.66;7733708;32;39916;-73
2022/03/12 19:15:14;;;;;;;16.50;9.05;;;;;;;3.98;21.98;101110.31;7735688;32;36400;-74
2022/03/12 19:19:31;;;;;;;20.20;10.30;;;;;;;3.99;33.58;101109.28;7733658;32;37099;-74
2022/03/12 19:23:47;;;;;;;32.88;15.82;;;;;;;3.97;24.79;101106.78;7735326;32;39251;-72
2022/03/12 19:28:04;;;;;;;27.13;11.48;;;;;;;4.23;23.71;101103.44;7734954;32;40794;-74
2022/03/12 19:32:21;;;;;;;21.95;10.98;;;;;;;3.70;24.00;101117.34;7727044;32;38730;-72
2022/03/12 19:36:37;;;;;;;17.27;9.80;;;;;;;3.71;22.88;101124.41;7732444;32;38189;-72
2022/03/12 19:40:56;;;;;;;21.12;10.10;;;;;;;3.83;22.57;101118.47;7734140;32;39312;-73
2022/03/12 19:45:18;;;;;;;16.85;9.10;;;;;;;3.71;23.37;101119.03;7730194;32;40576;-73
2022/03/12 19:49:39;;;;;;;21.12;10.18;;;;;;;3.41;24.03;101120.19;7736942;32;36099;-76
2022/03/12 19:53:56;;;;;;;20.55;9.25;;;;;;;3.20;24.70;101122.66;7737015;32;38112;-72
2022/03/12 19:58:12;;;;;;;18.12;9.02;;;;;;;3.19;25.97;101128.22;7734881;32;39167;-76